createdAt,value
2023-04-28T00:01:46.613Z,99128.17
2023-04-28T00:04:14.482Z,99128.48
2023-04-28T00:06:41.949Z,99129.52
2023-04-28T00:09:12.077Z,99138.91
2023-04-28T00:11:39.397Z,99141.89
2023-04-28T00:14:06.550Z,99144.04
2023-04-28T00:16:33.572Z,99146.17
2023-04-28T00:19:01.172Z,99147.28
2023-04-28T00:21:28.996Z,99148.25
2023-04-28T00:23:56.335Z,99144.00
2023-04-28T00:26:23.575Z,99142.05
2023-04-28T00:28:51.141Z,99135.52
2023-04-28T00:31:18.509Z,99138.30
2023-04-28T00:33:45.704Z,99144.51
2023-04-28T00:36:12.955Z,99142.57
2023-04-28T00:38:40.617Z,99142.80
2023-04-28T00:41:10.238Z,99145.89
2023-04-28T00:43:50.273Z,99146.77
2023-04-28T00:46:22.790Z,99148.45
2023-04-28T00:49:06.550Z,99151.29
2023-04-28T00:51:34.160Z,99156.67
2023-04-28T00:54:01.265Z,99159.73
2023-04-28T00:56:31.523Z,99160.23
2023-04-28T00:58:58.904Z,99160.76
2023-04-28T01:01:26.042Z,99159.40
2023-04-28T01:03:53.467Z,99154.98
2023-04-28T01:06:22.224Z,99152.12
2023-04-28T01:08:51.327Z,99155.36
2023-04-28T01:11:18.568Z,99163.27
2023-04-28T01:14:12.069Z,99172.05
2023-04-28T01:16:41.208Z,99170.16
2023-04-28T01:19:08.855Z,99171.84
2023-04-28T01:21:37.921Z,99171.71
2023-04-28T01:24:25.245Z,99167.64
2023-04-28T01:26:52.700Z,99166.73
2023-04-28T01:29:19.883Z,99168.00
2023-04-28T01:31:47.096Z,99170.30
2023-04-28T01:34:14.555Z,99171.88
2023-04-28T01:36:42.550Z,99172.21
2023-04-28T01:39:10.498Z,99177.31
2023-04-28T01:41:37.759Z,99178.17
2023-04-28T01:44:06.392Z,99177.01
2023-04-28T01:46:34.090Z,99176.77
2023-04-28T01:49:01.598Z,99178.59
2023-04-28T01:51:28.763Z,99178.08
2023-04-28T01:53:56.262Z,99177.66
2023-04-28T01:56:24.027Z,99185.98
2023-04-28T01:58:51.796Z,99187.73
2023-04-28T02:01:18.897Z,99185.33
2023-04-28T02:03:46.332Z,99181.11
2023-04-28T02:06:14.213Z,99181.60
2023-04-28T02:08:41.448Z,99177.13
2023-04-28T02:11:08.558Z,99174.89
2023-04-28T02:13:37.042Z,99167.66
2023-04-28T02:16:04.329Z,99171.39
2023-04-28T02:18:31.879Z,99169.04
2023-04-28T02:21:09.292Z,99169.29
2023-04-28T02:23:36.294Z,99164.23
2023-04-28T02:26:05.691Z,99162.60
2023-04-28T02:28:33.273Z,99165.17
2023-04-28T02:31:10.387Z,99170.14
2023-04-28T02:33:38.222Z,99173.98
2023-04-28T02:36:06.275Z,99175.96
2023-04-28T02:38:33.466Z,99181.80
2023-04-28T02:41:01.490Z,99184.92
2023-04-28T02:43:28.955Z,99187.23
2023-04-28T02:45:56.849Z,99187.38
2023-04-28T02:48:25.094Z,99188.43
2023-04-28T02:50:53.580Z,99193.01
2023-04-28T02:53:21.057Z,99195.14
2023-04-28T02:55:49.117Z,99196.58
2023-04-28T02:58:18.361Z,99201.48
2023-04-28T03:00:45.987Z,99203.23
2023-04-28T03:03:13.359Z,99207.93
2023-04-28T03:05:40.450Z,99214.65
2023-04-28T03:08:07.615Z,99220.84
2023-04-28T03:10:34.698Z,99224.84
2023-04-28T03:13:01.943Z,99228.55
2023-04-28T03:15:29.965Z,99229.75
2023-04-28T03:17:57.869Z,99233.16
2023-04-28T03:20:24.915Z,99235.93
2023-04-28T03:22:51.869Z,99235.10
2023-04-28T03:25:18.908Z,99238.57
2023-04-28T03:27:48.431Z,99244.84
2023-04-28T03:30:15.615Z,99243.23
2023-04-28T03:32:42.637Z,99245.96
2023-04-28T03:35:09.971Z,99251.42
2023-04-28T03:37:37.069Z,99258.10
2023-04-28T03:40:04.313Z,99262.33
2023-04-28T03:42:38.893Z,99262.72
2023-04-28T03:45:09.180Z,99264.85
2023-04-28T03:47:36.327Z,99255.07
2023-04-28T03:50:03.957Z,99247.36
2023-04-28T03:52:31.212Z,99246.39
2023-04-28T03:54:58.210Z,99252.44
2023-04-28T03:57:25.433Z,99255.93
2023-04-28T03:59:52.380Z,99259.02
2023-04-28T04:02:19.446Z,99258.41
2023-04-28T04:04:46.613Z,99268.89
2023-04-28T04:07:13.713Z,99270.13
2023-04-28T04:09:40.889Z,99278.36
2023-04-28T04:12:08.212Z,99277.06
2023-04-28T04:14:35.172Z,99271.61
2023-04-28T04:17:02.347Z,99265.70
2023-04-28T04:19:29.632Z,99265.20
2023-04-28T04:21:56.781Z,99267.52
2023-04-28T04:24:23.810Z,99264.70
2023-04-28T04:26:50.899Z,99273.82
2023-04-28T04:29:33.586Z,99281.74
2023-04-28T04:32:02.944Z,99284.30
2023-04-28T04:34:30.113Z,99291.02
2023-04-28T04:36:57.206Z,99297.32
2023-04-28T04:39:24.341Z,99296.98
2023-04-28T04:41:51.300Z,99302.64
2023-04-28T04:44:34.872Z,99307.21
2023-04-28T04:47:02.622Z,99308.94
2023-04-28T04:49:30.495Z,99307.34
2023-04-28T04:51:57.514Z,99305.41
2023-04-28T04:54:25.050Z,99310.05
2023-04-28T04:56:52.581Z,99309.77
2023-04-28T04:59:28.482Z,99314.09
2023-04-28T05:02:01.759Z,99315.97
2023-04-28T05:04:29.597Z,99318.17
2023-04-28T05:06:56.709Z,99321.83
2023-04-28T05:09:23.982Z,99320.73
2023-04-28T05:11:51.094Z,99318.90
2023-04-28T05:14:18.426Z,99315.36
2023-04-28T05:16:45.603Z,99320.29
2023-04-28T05:19:16.843Z,99316.95
2023-04-28T05:21:43.791Z,99317.47
2023-04-28T05:24:10.730Z,99319.26
2023-04-28T05:26:37.745Z,99325.17
2023-04-28T05:29:08.052Z,99318.27
2023-04-28T05:31:35.020Z,99316.90
2023-04-28T05:34:02.669Z,99314.86
2023-04-28T05:36:29.846Z,99315.11
2023-04-28T05:38:56.805Z,99309.20
2023-04-28T05:41:24.075Z,99312.08
2023-04-28T05:43:51.573Z,99305.94
2023-04-28T05:46:30.175Z,99297.39
2023-04-28T05:48:58.850Z,99288.17
2023-04-28T05:51:27.350Z,99286.02
2023-04-28T05:53:54.393Z,99291.98
2023-04-28T05:56:21.689Z,99301.88
2023-04-28T05:58:50.598Z,99306.54
2023-04-28T06:01:17.984Z,99309.86
2023-04-28T06:03:45.608Z,99317.63
2023-04-28T06:06:13.006Z,99322.21
2023-04-28T06:08:40.221Z,99326.39
2023-04-28T06:11:07.230Z,99329.45
2023-04-28T06:13:34.464Z,99327.36
2023-04-28T06:16:03.453Z,99330.61
2023-04-28T06:18:33.014Z,99335.15
2023-04-28T06:21:01.488Z,99337.53
2023-04-28T06:23:28.699Z,99343.67
2023-04-28T06:25:55.957Z,99349.50
2023-04-28T06:28:24.076Z,99356.16
2023-04-28T06:30:53.445Z,99356.90
2023-04-28T06:33:20.619Z,99356.18
2023-04-28T06:37:36.966Z,99357.34
2023-04-28T06:40:05.151Z,99361.42
2023-04-28T06:42:32.899Z,99373.17
2023-04-28T06:45:09.067Z,99370.88
2023-04-28T06:47:37.853Z,99367.58
2023-04-28T06:50:09.948Z,99367.94
2023-04-28T06:52:39.717Z,99366.33
2023-04-28T06:55:09.507Z,99364.57
2023-04-28T06:57:38.537Z,99367.18
2023-04-28T07:00:06.600Z,99371.85
2023-04-28T07:02:34.408Z,99368.44
2023-04-28T07:05:01.712Z,99360.61
2023-04-28T07:07:28.944Z,99359.96
2023-04-28T07:09:56.400Z,99366.83
2023-04-28T07:12:23.628Z,99368.38
2023-04-28T07:14:51.241Z,99371.25
2023-04-28T07:17:20.773Z,99367.40
2023-04-28T07:19:50.172Z,99361.49
2023-04-28T07:22:18.119Z,99357.73
2023-04-28T07:24:45.367Z,99354.07
2023-04-28T07:27:13.143Z,99354.30
2023-04-28T07:29:40.406Z,99352.23
2023-04-28T07:32:11.021Z,99351.93
2023-04-28T07:34:38.258Z,99352.09
2023-04-28T07:37:07.871Z,99347.40
2023-04-28T07:39:35.506Z,99349.66
2023-04-28T07:42:03.465Z,99345.98
2023-04-28T07:44:31.299Z,99349.17
2023-04-28T07:46:59.749Z,99357.52
2023-04-28T07:49:30.380Z,99356.66
2023-04-28T07:51:59.271Z,99364.50
2023-04-28T07:54:26.754Z,99361.58
2023-04-28T07:56:53.907Z,99363.16
2023-04-28T07:59:21.343Z,99363.42
2023-04-28T08:01:48.489Z,99361.59
2023-04-28T08:04:16.170Z,99359.28
2023-04-28T08:06:43.815Z,99359.79
2023-04-28T08:09:11.228Z,99359.43
2023-04-28T08:11:38.414Z,99356.10
2023-04-28T08:14:05.818Z,99358.31
2023-04-28T08:16:34.689Z,99357.70
2023-04-28T08:19:03.433Z,99359.77
2023-04-28T08:21:30.827Z,99354.61
2023-04-28T08:23:58.323Z,99354.60
2023-04-28T08:26:26.184Z,99351.25
2023-04-28T08:28:53.799Z,99353.48
2023-04-28T08:31:20.988Z,99355.11
2023-04-28T08:33:51.361Z,99356.17
2023-04-28T08:36:18.763Z,99355.73
2023-04-28T08:38:46.379Z,99358.59
2023-04-28T08:41:15.530Z,99353.91
2023-04-28T08:43:43.575Z,99351.90
2023-04-28T08:46:11.336Z,99353.73
2023-04-28T08:48:45.916Z,99346.57
2023-04-28T08:51:18.657Z,99348.92
2023-04-28T08:56:22.354Z,99349.92
2023-04-28T08:58:49.479Z,99350.83
2023-04-28T09:01:16.876Z,99347.86
2023-04-28T09:03:44.367Z,99348.02
2023-04-28T09:06:12.185Z,99343.14
2023-04-28T09:08:39.557Z,99341.08
2023-04-28T09:11:08.502Z,99340.09
2023-04-28T09:13:36.064Z,99338.63
2023-04-28T09:16:03.997Z,99336.91
2023-04-28T09:18:33.267Z,99332.38
2023-04-28T09:21:07.919Z,99320.21
2023-04-28T09:23:35.758Z,99326.88
2023-04-28T09:26:07.949Z,99326.61
2023-04-28T09:28:36.348Z,99325.97
2023-04-28T09:31:04.340Z,99326.71
2023-04-28T09:33:31.998Z,99326.27
2023-04-28T09:35:59.053Z,99329.20
2023-04-28T09:38:26.306Z,99326.91
2023-04-28T09:40:57.605Z,99324.52
2023-04-28T09:43:31.821Z,99331.77
2023-04-28T09:46:03.338Z,99328.72
2023-04-28T09:48:34.979Z,99330.20
2023-04-28T09:51:06.160Z,99329.60
2023-04-28T09:53:33.917Z,99327.17
2023-04-28T09:56:02.273Z,99322.73
2023-04-28T09:58:31.048Z,99322.41
2023-04-28T10:00:59.410Z,99325.93
2023-04-28T10:03:29.811Z,99326.48
2023-04-28T10:05:58.502Z,99332.02
2023-04-28T10:08:26.095Z,99327.19
2023-04-28T10:10:56.992Z,99332.78
2023-04-28T10:13:24.345Z,99334.42
2023-04-28T10:15:51.635Z,99335.65
2023-04-28T10:18:18.878Z,99333.15
2023-04-28T10:20:47.932Z,99330.60
2023-04-28T10:23:40.282Z,99326.98
2023-04-28T10:26:11.712Z,99327.05
2023-04-28T10:28:45.508Z,99321.57
2023-04-28T10:31:13.549Z,99322.49
2023-04-28T10:33:41.281Z,99326.30
2023-04-28T10:36:08.471Z,99322.00
2023-04-28T10:38:35.986Z,99320.86
2023-04-28T10:41:03.487Z,99319.39
2023-04-28T10:43:33.341Z,99314.61
2023-04-28T10:46:06.133Z,99311.77
2023-04-28T10:48:33.410Z,99306.52
2023-04-28T10:51:03.547Z,99290.73
2023-04-28T10:53:42.923Z,99298.67
2023-04-28T10:56:19.847Z,99297.11
2023-04-28T10:58:50.970Z,99299.74
2023-04-28T11:01:21.394Z,99297.50
2023-04-28T11:04:01.140Z,99288.02
2023-04-28T11:06:34.898Z,99275.08
2023-04-28T11:09:02.724Z,99274.59
2023-04-28T11:11:30.618Z,99279.33
2023-04-28T11:14:19.535Z,99279.51
2023-04-28T11:16:53.995Z,99281.25
2023-04-28T11:19:22.333Z,99282.11
2023-04-28T11:21:49.964Z,99278.46
2023-04-28T11:24:17.388Z,99278.84
2023-04-28T11:26:44.501Z,99279.13
2023-04-28T11:29:12.008Z,99273.52
2023-04-28T11:31:38.988Z,99271.26
2023-04-28T11:34:12.342Z,99262.45
2023-04-28T11:36:39.580Z,99261.66
2023-04-28T11:39:10.643Z,99260.64
2023-04-28T11:41:42.393Z,99259.52
2023-04-28T11:44:12.379Z,99257.39
2023-04-28T11:47:01.278Z,99253.23
2023-04-28T11:49:41.591Z,99257.19
2023-04-28T11:52:08.995Z,99244.85
2023-04-28T11:54:36.146Z,99233.20
2023-04-28T11:57:05.161Z,99223.33
2023-04-28T11:59:34.131Z,99228.27
2023-04-28T12:02:02.946Z,99221.46
2023-04-28T12:04:35.934Z,99222.25
2023-04-28T12:07:04.032Z,99223.77
2023-04-28T12:09:31.538Z,99225.05
2023-04-28T12:12:03.500Z,99215.12
2023-04-28T12:14:32.962Z,99215.91
2023-04-28T12:16:59.902Z,99209.77
2023-04-28T12:19:26.840Z,99213.88
2023-04-28T12:22:01.112Z,99207.94
2023-04-28T12:24:29.716Z,99214.88
2023-04-28T12:27:14.738Z,99212.84
2023-04-28T12:29:42.562Z,99218.38
2023-04-28T12:32:10.614Z,99223.36
2023-04-28T12:34:39.849Z,99230.41
2023-04-28T12:37:07.050Z,99224.08
2023-04-28T12:39:37.061Z,99225.48
2023-04-28T12:42:06.461Z,99224.84
2023-04-28T12:44:38.042Z,99218.59
2023-04-28T12:47:09.557Z,99216.37
2023-04-28T12:49:36.906Z,99210.64
2023-04-28T12:52:04.666Z,99221.17
2023-04-28T12:54:32.066Z,99224.71
2023-04-28T12:56:59.051Z,99229.14
2023-04-28T12:59:26.275Z,99218.30
2023-04-28T13:01:53.385Z,99235.85
2023-04-28T13:04:20.816Z,99233.81
2023-04-28T13:06:48.271Z,99237.67
2023-04-28T13:09:15.552Z,99236.30
2023-04-28T13:11:43.162Z,99236.25
2023-04-28T13:14:10.198Z,99242.37
2023-04-28T13:16:37.361Z,99238.98
2023-04-28T13:19:04.691Z,99234.44
2023-04-28T13:21:31.992Z,99230.88
2023-04-28T13:23:58.946Z,99243.34
2023-04-28T13:26:26.934Z,99238.23
2023-04-28T13:28:53.942Z,99234.16
2023-04-28T13:31:21.070Z,99236.44
2023-04-28T13:33:48.208Z,99235.45
2023-04-28T13:36:15.107Z,99232.66
2023-04-28T13:38:42.140Z,99229.57
2023-04-28T13:41:09.131Z,99234.88
2023-04-28T13:43:36.295Z,99239.59
2023-04-28T13:46:08.479Z,99236.02
2023-04-28T13:48:36.397Z,99242.14
2023-04-28T13:51:04.325Z,99259.98
2023-04-28T13:53:31.892Z,99272.83
2023-04-28T13:55:59.947Z,99285.23
2023-04-28T13:58:27.509Z,99303.60
2023-04-28T14:00:56.378Z,99326.70
2023-04-28T14:03:24.564Z,99331.54
2023-04-28T14:05:53.974Z,99311.05
2023-04-28T14:08:21.699Z,99291.85
2023-04-28T14:10:49.628Z,99287.04
2023-04-28T14:13:16.917Z,99287.73
2023-04-28T14:15:57.970Z,99288.42
2023-04-28T14:18:26.491Z,99282.04
2023-04-28T14:20:54.672Z,99281.05
2023-04-28T14:23:22.817Z,99274.67
2023-04-28T14:25:50.501Z,99274.23
2023-04-28T14:28:17.881Z,99262.09
2023-04-28T14:30:45.046Z,99260.41
2023-04-28T14:33:12.324Z,99254.90
2023-04-28T14:35:39.969Z,99252.10
2023-04-28T14:38:07.137Z,99255.40
2023-04-28T14:40:34.240Z,99258.95
2023-04-28T14:43:01.294Z,99252.66
2023-04-28T14:45:28.840Z,99238.27
2023-04-28T14:47:56.112Z,99214.69
2023-04-28T14:50:23.194Z,99189.66
2023-04-28T14:52:50.315Z,99184.84
2023-04-28T14:55:17.238Z,99185.17
2023-04-28T14:57:44.394Z,99189.77
2023-04-28T15:00:11.929Z,99190.23
2023-04-28T15:02:39.370Z,99190.30
2023-04-28T15:05:08.172Z,99186.70
2023-04-28T15:07:35.374Z,99190.53
2023-04-28T15:10:02.686Z,99192.44
2023-04-28T15:12:30.761Z,99191.11
2023-04-28T15:14:58.460Z,99190.32
2023-04-28T15:17:27.292Z,99187.48
2023-04-28T15:19:54.542Z,99186.29
2023-04-28T15:22:22.237Z,99175.30
2023-04-28T15:24:49.804Z,99182.65
2023-04-28T15:27:17.120Z,99177.26
2023-04-28T15:29:45.458Z,99181.96
2023-04-28T15:32:14.140Z,99183.09
2023-04-28T15:34:41.958Z,99190.27
2023-04-28T15:37:37.679Z,99188.51
2023-04-28T15:40:09.655Z,99191.02
2023-04-28T15:42:38.017Z,99195.84
2023-04-28T15:45:06.034Z,99199.52
2023-04-28T15:47:36.244Z,99207.02
2023-04-28T15:50:14.466Z,99206.84
2023-04-28T15:52:46.465Z,99212.43
2023-04-28T15:55:18.645Z,99214.11
2023-04-28T15:57:46.433Z,99212.93
2023-04-28T16:00:15.030Z,99208.79
2023-04-28T16:02:43.963Z,99196.45
2023-04-28T16:05:12.270Z,99190.69
2023-04-28T16:07:44.634Z,99192.15
2023-04-28T16:10:14.904Z,99184.17
2023-04-28T16:12:43.125Z,99186.99
2023-04-28T16:15:11.339Z,99194.76
2023-04-28T16:17:38.698Z,99194.55
2023-04-28T16:20:07.497Z,99192.98
2023-04-28T16:22:36.256Z,99194.74
2023-04-28T16:25:05.186Z,99202.17
2023-04-28T16:27:32.878Z,99203.50
2023-04-28T16:30:00.706Z,99212.45
2023-04-28T16:32:27.869Z,99217.20
2023-04-28T16:34:59.019Z,99221.63
2023-04-28T16:37:26.758Z,99221.38
2023-04-28T16:39:54.282Z,99226.21
2023-04-28T16:42:23.258Z,99232.20
2023-04-28T16:44:52.626Z,99234.41
2023-04-28T16:47:20.697Z,99239.95
2023-04-28T16:49:48.846Z,99240.11
2023-04-28T16:52:16.951Z,99242.63
2023-04-28T16:54:46.923Z,99245.25
2023-04-28T16:57:14.002Z,99245.88
2023-04-28T16:59:41.970Z,99252.39
2023-04-28T17:02:09.083Z,99256.73
2023-04-28T17:04:37.844Z,99249.71
2023-04-28T17:07:05.565Z,99249.44
2023-04-28T17:09:34.075Z,99246.39
2023-04-28T17:12:01.275Z,99246.55
2023-04-28T17:14:29.155Z,99245.14
2023-04-28T17:16:56.794Z,99247.35
2023-04-28T17:19:23.886Z,99240.25
2023-04-28T17:21:53.752Z,99234.38
2023-04-28T17:24:20.805Z,99240.37
2023-04-28T17:26:47.960Z,99242.02
2023-04-28T17:29:16.439Z,99234.02
2023-04-28T17:31:43.551Z,99240.77
2023-04-28T17:34:10.606Z,99242.17
2023-04-28T17:36:37.802Z,99242.31
2023-04-28T17:39:04.957Z,99240.42
2023-04-28T17:41:32.269Z,99241.59
2023-04-28T17:43:59.372Z,99244.41
2023-04-28T17:46:27.696Z,99253.48
2023-04-28T17:48:55.052Z,99247.80
2023-04-28T17:51:22.729Z,99245.42
2023-04-28T17:53:49.806Z,99249.02
2023-04-28T17:56:16.911Z,99248.35
2023-04-28T17:58:44.276Z,99249.80
2023-04-28T18:01:11.746Z,99246.65
2023-04-28T18:03:39.355Z,99246.40
2023-04-28T18:06:08.065Z,99251.48
2023-04-28T18:08:36.961Z,99240.66
2023-04-28T18:11:05.217Z,99240.45
2023-04-28T18:13:34.137Z,99240.92
2023-04-28T18:16:01.409Z,99241.38
2023-04-28T18:18:30.643Z,99247.39
2023-04-28T18:20:59.175Z,99242.38
2023-04-28T18:23:26.778Z,99244.05
2023-04-28T18:25:53.798Z,99245.40
2023-04-28T18:28:21.236Z,99240.73
2023-04-28T18:30:48.270Z,99242.63
2023-04-28T18:33:19.456Z,99246.11
2023-04-28T18:35:48.442Z,99242.68
2023-04-28T18:38:15.521Z,99244.11
2023-04-28T18:40:43.056Z,99247.73
2023-04-28T18:43:13.371Z,99241.08
2023-04-28T18:45:41.682Z,99246.52
2023-04-28T18:48:10.905Z,99248.80
2023-04-28T18:50:38.647Z,99240.88
2023-04-28T18:55:19.446Z,99245.84
2023-04-28T18:57:48.230Z,99252.29
2023-04-28T19:00:16.469Z,99253.23
2023-04-28T19:02:44.754Z,99249.85
2023-04-28T19:05:13.346Z,99239.88
2023-04-28T19:07:41.717Z,99240.66
2023-04-28T19:10:09.309Z,99240.76
2023-04-28T19:12:36.634Z,99235.86
2023-04-28T19:15:06.233Z,99237.58
2023-04-28T19:17:35.426Z,99239.38
2023-04-28T19:20:05.996Z,99245.42
2023-04-28T19:22:36.560Z,99248.36
2023-04-28T19:25:05.455Z,99244.83
2023-04-28T19:27:34.116Z,99247.15
2023-04-28T19:30:01.682Z,99244.54
2023-04-28T19:32:29.236Z,99245.45
2023-04-28T19:34:56.449Z,99244.79
2023-04-28T19:37:23.752Z,99245.85
2023-04-28T19:47:14.116Z,99239.20
2023-04-28T19:49:42.455Z,99242.09
2023-04-28T19:52:10.398Z,99239.38
2023-04-28T19:54:38.853Z,99239.98
2023-04-28T20:03:20.377Z,99241.92
2023-04-28T20:05:47.708Z,99238.16
2023-04-28T20:08:14.660Z,99237.70
2023-04-28T20:10:43.308Z,99235.59
2023-04-28T20:13:12.100Z,99240.65
2023-04-28T20:15:39.523Z,99243.36
2023-04-28T20:18:06.996Z,99247.52
2023-04-28T20:20:34.812Z,99244.63
2023-04-28T20:23:02.024Z,99241.25
2023-04-28T20:25:29.720Z,99250.38
2023-04-28T20:27:57.268Z,99255.14
2023-04-28T20:30:24.465Z,99252.30
2023-04-28T20:32:52.244Z,99261.90
2023-04-28T20:35:20.695Z,99253.16
2023-04-28T20:37:47.877Z,99249.66
2023-04-28T20:40:15.485Z,99254.16
2023-04-28T20:42:42.536Z,99257.58
2023-04-28T20:45:12.658Z,99261.66
2023-04-28T20:47:40.115Z,99260.92
2023-04-28T20:50:12.804Z,99259.63
2023-04-28T20:52:42.704Z,99263.52
2023-04-28T20:55:10.899Z,99269.44
2023-04-28T20:57:38.048Z,99267.44
2023-04-28T21:00:07.101Z,99265.06
2023-04-28T21:02:36.574Z,99261.78
2023-04-28T21:05:03.771Z,99264.23
2023-04-28T21:07:31.971Z,99251.44
2023-04-28T21:09:59.052Z,99253.75
2023-04-28T21:12:26.726Z,99258.11
2023-04-28T21:14:54.633Z,99257.42
2023-04-28T21:17:21.572Z,99258.17
2023-04-28T21:19:48.946Z,99252.98
2023-04-28T21:22:16.707Z,99261.70
2023-04-28T21:24:44.160Z,99262.42
2023-04-28T21:27:11.222Z,99256.98
2023-04-28T21:29:38.423Z,99261.45
2023-04-28T21:32:07.380Z,99258.72
2023-04-28T21:34:34.600Z,99260.42
2023-04-28T21:37:02.236Z,99262.40
2023-04-28T21:39:29.336Z,99263.03
2023-04-28T21:41:56.301Z,99257.40
2023-04-28T21:44:23.410Z,99267.31
2023-04-28T21:46:50.575Z,99268.48
2023-04-28T21:49:18.195Z,99280.14
2023-04-28T21:51:46.034Z,99281.61
2023-04-28T21:54:14.515Z,99286.03
2023-04-28T21:56:41.541Z,99285.92
2023-04-28T21:59:09.298Z,99280.30
2023-04-28T22:01:36.621Z,99277.39
2023-04-28T22:04:04.275Z,99277.03
2023-04-28T22:06:31.629Z,99277.05
2023-04-28T22:08:58.620Z,99278.38
2023-04-28T22:11:26.240Z,99275.16
2023-04-28T22:13:53.275Z,99270.48
2023-04-28T22:16:20.497Z,99264.48
2023-04-28T22:18:47.611Z,99262.75
2023-04-28T22:21:15.173Z,99271.41
2023-04-28T22:23:42.183Z,99267.91
2023-04-28T22:26:09.232Z,99270.88
2023-04-28T22:28:36.720Z,99260.23
2023-04-28T22:31:04.423Z,99267.22
2023-04-28T22:33:32.521Z,99271.15
2023-04-28T22:35:59.626Z,99274.23
2023-04-28T22:38:26.983Z,99275.45
2023-04-28T22:40:54.100Z,99274.08
2023-04-28T22:43:21.514Z,99267.38
2023-04-28T22:45:49.118Z,99266.64
2023-04-28T22:48:16.273Z,99261.70
2023-04-28T22:50:43.640Z,99259.54
2023-04-28T22:53:10.651Z,99262.23
2023-04-28T22:55:39.034Z,99257.66
2023-04-28T22:58:06.022Z,99265.25
2023-04-28T23:00:33.899Z,99262.97
2023-04-28T23:03:01.148Z,99259.99
2023-04-28T23:05:28.413Z,99260.85
2023-04-28T23:07:55.628Z,99273.05
2023-04-28T23:10:22.602Z,99271.88
2023-04-28T23:12:49.746Z,99273.46
2023-04-28T23:15:17.298Z,99277.23
2023-04-28T23:17:44.408Z,99275.21
2023-04-28T23:20:12.004Z,99285.13
2023-04-28T23:22:39.639Z,99273.80
2023-04-28T23:25:07.184Z,99286.27
2023-04-28T23:27:34.235Z,99284.61
2023-04-28T23:30:01.366Z,99287.31
2023-04-28T23:32:28.619Z,99286.46
2023-04-28T23:34:55.737Z,99279.62
2023-04-28T23:37:22.822Z,99283.85
2023-04-28T23:39:50.099Z,99288.31
2023-04-28T23:42:17.555Z,99289.85
2023-04-28T23:44:44.568Z,99292.70
2023-04-28T23:47:12.244Z,99292.59
2023-04-28T23:49:39.806Z,99293.81
2023-04-28T23:52:07.726Z,99292.68
2023-04-28T23:54:34.731Z,99293.33
2023-04-28T23:57:01.688Z,99294.67
2023-04-28T23:59:29.024Z,99288.95
